Time;durP1;ratioP1;P1;durP2;ratioP2;P2;SDS_P1;SDS_P2;PMS_P1;PMS_P2;Temp;Humidity;BMP_temperature;BMP_pressure;BME280_temperature;BME280_humidity;BME280_pressure;Samples;Min_cycle;Max_cycle;Signal;HPM_P1;HPM_P2
2023/04/22 00:00:40;;;;;;;1.40;1.30;;;;;;;;;;5026121;28;58867;-67
2023/04/22 00:03:07;;;;;;;1.55;1.45;;;;;;;;;;5025204;28;58396;-66
2023/04/22 00:05:32;;;;;;;1.20;1.10;;;;;;;;;;5024268;28;58846;-68
2023/04/22 00:07:57;;;;;;;1.50;1.40;;;;;;;;;;5026062;28;58343;-67
2023/04/22 00:10:22;;;;;;;1.20;1.15;;;;;;;;;;5023288;28;58429;-67
2023/04/22 00:12:47;;;;;;;0.97;0.97;;;;;;;;;;5026681;28;58830;-67
2023/04/22 00:15:12;;;;;;;1.20;1.10;;;;;;;;;;5024401;28;59856;-67
2023/04/22 00:17:39;;;;;;;1.20;1.13;;;;;;;;;;5024769;28;58749;-67
2023/04/22 00:20:04;;;;;;;1.00;1.00;;;;;;;;;;5025640;28;58531;-67
2023/04/22 00:22:30;;;;;;;1.83;1.58;;;;;;;;;;5025861;28;58878;-67
2023/04/22 00:24:55;;;;;;;1.40;1.30;;;;;;;;;;5025523;28;58811;-67
2023/04/22 00:27:20;;;;;;;1.60;1.50;;;;;;;;;;5025889;28;58832;-67
2023/04/22 00:29:45;;;;;;;1.55;1.45;;;;;;;;;;5023717;28;59283;-67
2023/04/22 00:32:10;;;;;;;1.58;1.48;;;;;;;;;;5025222;28;58363;-67
2023/04/22 00:34:35;;;;;;;1.73;1.60;;;;;;;;;;5025586;28;59095;-67
2023/04/22 00:37:01;;;;;;;1.20;1.20;;;;;;;;;;5024865;28;60377;-67
2023/04/22 00:39:26;;;;;;;1.57;1.47;;;;;;;;;;5025997;28;58498;-67
2023/04/22 00:41:51;;;;;;;1.70;1.60;;;;;;;;;;5023557;28;58870;-67
2023/04/22 00:44:17;;;;;;;1.75;1.65;;;;;;;;;;5024279;28;58505;-68
2023/04/22 00:46:42;;;;;;;1.20;1.10;;;;;;;;;;5024834;28;58404;-67
2023/04/22 00:49:07;;;;;;;0.95;0.90;;;;;;;;;;5025231;28;58261;-67
2023/04/22 00:51:32;;;;;;;1.52;1.42;;;;;;;;;;5023879;28;58722;-68
2023/04/22 00:53:58;;;;;;;1.30;1.20;;;;;;;;;;5039518;28;58646;-67
2023/04/22 00:56:26;;;;;;;3.55;1.45;;;;;;;;;;5023960;28;59648;-68
2023/04/22 00:58:52;;;;;;;1.48;1.38;;;;;;;;;;5024136;28;58344;-67
2023/04/22 01:01:18;;;;;;;1.48;1.38;;;;;;;;;;5024119;28;58822;-67
2023/04/22 01:03:44;;;;;;;1.60;1.50;;;;;;;;;;5024160;28;59126;-67
2023/04/22 01:06:09;;;;;;;1.40;1.15;;;;;;;;;;5023794;28;58506;-67
2023/04/22 01:08:34;;;;;;;1.60;1.50;;;;;;;;;;5022986;28;58540;-67
2023/04/22 01:10:59;;;;;;;1.30;1.20;;;;;;;;;;5022943;28;58703;-67
2023/04/22 01:13:25;;;;;;;1.63;1.52;;;;;;;;;;5025487;28;58236;-68
2023/04/22 01:15:50;;;;;;;1.03;1.00;;;;;;;;;;5024003;28;58485;-67
2023/04/22 01:18:16;;;;;;;1.13;1.02;;;;;;;;;;5024036;28;58979;-67
2023/04/22 01:20:41;;;;;;;1.60;1.50;;;;;;;;;;5022467;28;60186;-66
2023/04/22 01:23:12;;;;;;;1.40;1.30;;;;;;;;;;5023032;28;58628;-67
2023/04/22 01:25:37;;;;;;;1.13;1.13;;;;;;;;;;5023319;28;58471;-67
2023/04/22 01:28:02;;;;;;;1.40;1.30;;;;;;;;;;5022395;28;58632;-67
2023/04/22 01:30:27;;;;;;;1.70;1.60;;;;;;;;;;5025697;28;59015;-67
2023/04/22 01:32:52;;;;;;;1.13;1.10;;;;;;;;;;5027573;28;58320;-67
2023/04/22 01:35:18;;;;;;;1.43;1.33;;;;;;;;;;5027809;28;58314;-67
2023/04/22 01:37:43;;;;;;;1.55;1.45;;;;;;;;;;5027720;28;58265;-67
2023/04/22 01:40:08;;;;;;;1.58;1.48;;;;;;;;;;5027524;28;58891;-67
2023/04/22 01:42:34;;;;;;;1.75;1.65;;;;;;;;;;5027447;28;58778;-67
2023/04/22 01:44:59;;;;;;;1.40;1.30;;;;;;;;;;5028308;28;58866;-67
2023/04/22 01:47:26;;;;;;;1.13;1.03;;;;;;;;;;5027593;28;59103;-66
2023/04/22 01:49:51;;;;;;;1.30;1.20;;;;;;;;;;5025672;28;58847;-69
2023/04/22 01:52:16;;;;;;;1.50;1.20;;;;;;;;;;5027314;28;58946;-67
2023/04/22 01:54:41;;;;;;;1.42;1.33;;;;;;;;;;5026472;28;58936;-65
2023/04/22 01:57:09;;;;;;;1.37;1.27;;;;;;;;;;5027642;28;58699;-67
2023/04/22 01:59:34;;;;;;;1.33;1.23;;;;;;;;;;5027450;28;59213;-68
2023/04/22 02:01:59;;;;;;;1.23;1.13;;;;;;;;;;5027002;28;58793;-67
2023/04/22 02:04:24;;;;;;;1.38;1.27;;;;;;;;;;5025967;28;58787;-67
2023/04/22 02:06:49;;;;;;;1.48;1.38;;;;;;;;;;5028521;28;58328;-67
2023/04/22 02:09:15;;;;;;;1.38;1.27;;;;;;;;;;5026530;28;58418;-67
2023/04/22 02:11:40;;;;;;;1.60;1.23;;;;;;;;;;5027613;28;59209;-65
2023/04/22 02:14:05;;;;;;;1.67;1.57;;;;;;;;;;5027862;28;58447;-66
2023/04/22 02:16:30;;;;;;;1.20;1.10;;;;;;;;;;5026999;28;58892;-66
2023/04/22 02:18:55;;;;;;;1.55;1.45;;;;;;;;;;5028492;28;58719;-68
2023/04/22 02:21:20;;;;;;;1.55;1.45;;;;;;;;;;5026561;28;58596;-68
2023/04/22 02:23:45;;;;;;;1.03;1.00;;;;;;;;;;5027292;28;58707;-67
2023/04/22 02:26:11;;;;;;;1.43;1.33;;;;;;;;;;5027791;28;58455;-66
2023/04/22 02:28:36;;;;;;;1.35;1.25;;;;;;;;;;5028552;28;58519;-68
2023/04/22 02:31:01;;;;;;;1.33;1.23;;;;;;;;;;5029550;28;58170;-64
2023/04/22 02:33:26;;;;;;;1.60;1.50;;;;;;;;;;5030093;28;58724;-67
2023/04/22 02:35:52;;;;;;;1.20;1.10;;;;;;;;;;5026106;28;58709;-67
2023/04/22 02:38:18;;;;;;;1.02;1.02;;;;;;;;;;5028820;28;58863;-67
2023/04/22 02:40:43;;;;;;;1.13;1.13;;;;;;;;;;5028269;28;59027;-67
2023/04/22 02:43:08;;;;;;;1.50;1.40;;;;;;;;;;5027850;28;58514;-67
2023/04/22 02:45:33;;;;;;;1.43;1.33;;;;;;;;;;5029800;28;58887;-67
2023/04/22 02:47:58;;;;;;;1.00;1.00;;;;;;;;;;5028319;28;58619;-68
2023/04/22 02:50:23;;;;;;;1.67;1.58;;;;;;;;;;5027634;28;58350;-67
2023/04/22 02:52:48;;;;;;;1.40;1.30;;;;;;;;;;5028872;28;59408;-67
2023/04/22 02:55:14;;;;;;;1.55;1.45;;;;;;;;;;5028911;28;58505;-67
2023/04/22 02:57:39;;;;;;;1.25;1.15;;;;;;;;;;5028651;28;58525;-67
2023/04/22 03:00:05;;;;;;;1.47;1.37;;;;;;;;;;5028683;28;59207;-67
2023/04/22 03:02:30;;;;;;;1.00;1.00;;;;;;;;;;5028767;28;58443;-67
2023/04/22 03:04:56;;;;;;;1.35;1.25;;;;;;;;;;5027458;28;58787;-67
2023/04/22 03:07:21;;;;;;;1.63;1.52;;;;;;;;;;5028223;28;58745;-66
2023/04/22 03:09:46;;;;;;;1.47;1.37;;;;;;;;;;5028642;28;58822;-67
2023/04/22 03:12:11;;;;;;;1.23;1.13;;;;;;;;;;5029275;28;58901;-67
2023/04/22 03:14:36;;;;;;;1.50;1.40;;;;;;;;;;5025481;28;58856;-67
2023/04/22 03:17:01;;;;;;;1.40;1.30;;;;;;;;;;5027527;28;58712;-68
2023/04/22 03:19:26;;;;;;;1.35;1.25;;;;;;;;;;5028267;28;58483;-67
2023/04/22 03:21:51;;;;;;;1.23;1.13;;;;;;;;;;5028297;28;58680;-67
2023/04/22 03:24:17;;;;;;;2.07;1.70;;;;;;;;;;5027852;28;58520;-67
2023/04/22 03:26:42;;;;;;;1.83;1.40;;;;;;;;;;5027232;28;58642;-67
2023/04/22 03:29:07;;;;;;;1.20;1.20;;;;;;;;;;5028296;28;58647;-68
2023/04/22 03:31:33;;;;;;;1.55;1.45;;;;;;;;;;5028158;28;58699;-66
2023/04/22 03:33:58;;;;;;;1.60;1.50;;;;;;;;;;5027256;28;58460;-66
2023/04/22 03:36:23;;;;;;;1.70;1.60;;;;;;;;;;5028048;28;58724;-65
2023/04/22 03:38:48;;;;;;;1.40;1.30;;;;;;;;;;5012498;28;58634;-66
2023/04/22 03:41:14;;;;;;;1.33;1.23;;;;;;;;;;5005415;28;58662;-66
2023/04/22 03:43:39;;;;;;;1.57;1.47;;;;;;;;;;5004867;28;58732;-65
2023/04/22 03:46:04;;;;;;;1.40;1.30;;;;;;;;;;5006808;28;58745;-66
2023/04/22 03:48:34;;;;;;;1.20;1.20;;;;;;;;;;5026615;28;58341;-69
2023/04/22 03:50:59;;;;;;;1.35;1.25;;;;;;;;;;5026096;28;59118;-65
2023/04/22 03:53:24;;;;;;;1.60;1.50;;;;;;;;;;5026705;28;58466;-65
2023/04/22 03:55:49;;;;;;;1.77;1.67;;;;;;;;;;5028298;28;58786;-66
2023/04/22 03:58:14;;;;;;;1.50;1.40;;;;;;;;;;5028386;28;58376;-65
2023/04/22 04:00:40;;;;;;;1.20;1.17;;;;;;;;;;5026413;28;58420;-65
2023/04/22 04:03:05;;;;;;;1.13;1.13;;;;;;;;;;5027278;28;58535;-65
2023/04/22 04:05:30;;;;;;;1.20;1.20;;;;;;;;;;5025652;28;58946;-66
2023/04/22 04:07:55;;;;;;;1.92;1.83;;;;;;;;;;5019575;28;58880;-65
2023/04/22 04:10:20;;;;;;;1.30;1.20;;;;;;;;;;5006119;28;58639;-65
2023/04/22 04:12:46;;;;;;;1.45;1.20;;;;;;;;;;5007511;28;58530;-68
2023/04/22 04:15:11;;;;;;;1.40;1.30;;;;;;;;;;4998980;28;58800;-67
2023/04/22 04:17:36;;;;;;;1.50;1.40;;;;;;;;;;5015266;28;58610;-67
2023/04/22 04:20:01;;;;;;;1.17;1.10;;;;;;;;;;5021771;28;58394;-68
2023/04/22 04:22:28;;;;;;;1.63;1.53;;;;;;;;;;5027669;28;58437;-66
2023/04/22 04:24:54;;;;;;;1.45;1.35;;;;;;;;;;5028285;28;58964;-65
2023/04/22 04:27:19;;;;;;;1.52;1.42;;;;;;;;;;5027855;28;58526;-68
2023/04/22 04:29:46;;;;;;;0.90;0.90;;;;;;;;;;5026086;28;58005;-65
2023/04/22 04:32:11;;;;;;;1.77;1.40;;;;;;;;;;5026380;28;58454;-67
2023/04/22 04:34:36;;;;;;;1.70;1.60;;;;;;;;;;5026543;28;58374;-66
2023/04/22 04:37:02;;;;;;;1.53;1.43;;;;;;;;;;5025589;28;58397;-65
2023/04/22 04:39:27;;;;;;;1.63;1.52;;;;;;;;;;5027376;28;59437;-66
2023/04/22 04:41:54;;;;;;;1.30;1.20;;;;;;;;;;5024509;28;58770;-66
2023/04/22 04:44:19;;;;;;;1.50;1.40;;;;;;;;;;5021388;28;59004;-66
2023/04/22 04:46:45;;;;;;;1.85;1.75;;;;;;;;;;5023583;28;58554;-67
2023/04/22 04:49:13;;;;;;;1.70;1.60;;;;;;;;;;5025393;28;58458;-67
2023/04/22 04:51:38;;;;;;;1.70;1.60;;;;;;;;;;5023500;28;59056;-67
2023/04/22 04:54:04;;;;;;;1.60;1.50;;;;;;;;;;5024430;28;58804;-67
2023/04/22 04:56:29;;;;;;;1.43;1.33;;;;;;;;;;5025041;28;58415;-67
2023/04/22 04:58:55;;;;;;;1.55;1.45;;;;;;;;;;5026489;28;58567;-67
2023/04/22 05:01:20;;;;;;;1.83;1.73;;;;;;;;;;5026621;28;58569;-67
2023/04/22 05:03:45;;;;;;;1.60;1.50;;;;;;;;;;5025696;28;59002;-67
2023/04/22 05:06:10;;;;;;;1.77;1.67;;;;;;;;;;5025657;28;58484;-68
2023/04/22 05:08:35;;;;;;;1.70;1.60;;;;;;;;;;5027338;28;58371;-67
2023/04/22 05:11:01;;;;;;;1.67;1.57;;;;;;;;;;5024461;28;59278;-67
2023/04/22 05:13:26;;;;;;;1.30;1.20;;;;;;;;;;5025611;28;58387;-67
2023/04/22 05:15:51;;;;;;;1.50;1.38;;;;;;;;;;5027033;28;59835;-67
2023/04/22 05:18:16;;;;;;;1.27;1.20;;;;;;;;;;5026040;28;58410;-67
2023/04/22 05:20:42;;;;;;;1.60;1.50;;;;;;;;;;5025710;28;59000;-65
2023/04/22 05:23:07;;;;;;;1.30;1.30;;;;;;;;;;5024817;28;61031;-67
2023/04/22 05:25:32;;;;;;;1.50;1.40;;;;;;;;;;5026264;28;58337;-67
2023/04/22 05:27:57;;;;;;;1.23;1.23;;;;;;;;;;5026543;28;59256;-66
2023/04/22 05:30:22;;;;;;;1.27;1.27;;;;;;;;;;5026547;28;58383;-67
2023/04/22 05:32:47;;;;;;;1.20;1.20;;;;;;;;;;5026158;28;58401;-67
2023/04/22 05:35:13;;;;;;;1.83;1.73;;;;;;;;;;5025219;28;58814;-67
2023/04/22 05:37:38;;;;;;;1.67;1.58;;;;;;;;;;5023982;28;58701;-67
2023/04/22 05:40:03;;;;;;;1.40;1.30;;;;;;;;;;5025225;28;58752;-67
2023/04/22 05:42:28;;;;;;;1.67;1.58;;;;;;;;;;5026175;28;58447;-66
2023/04/22 05:44:53;;;;;;;1.40;1.30;;;;;;;;;;5024317;28;58091;-67
2023/04/22 05:47:18;;;;;;;1.45;1.35;;;;;;;;;;5025354;28;58382;-67
2023/04/22 05:49:44;;;;;;;7.03;1.73;;;;;;;;;;5022344;28;58700;-70
2023/04/22 05:52:09;;;;;;;1.57;1.47;;;;;;;;;;5024416;28;59377;-71
2023/04/22 05:54:34;;;;;;;1.70;1.60;;;;;;;;;;5026253;28;58987;-65
2023/04/22 05:57:01;;;;;;;1.70;1.60;;;;;;;;;;5024970;28;58869;-65
2023/04/22 05:59:26;;;;;;;1.40;1.30;;;;;;;;;;5025000;28;58150;-63
2023/04/22 06:01:51;;;;;;;1.60;1.50;;;;;;;;;;5025305;28;58773;-64
2023/04/22 06:04:17;;;;;;;2.80;2.40;;;;;;;;;;5023981;28;58512;-65
2023/04/22 06:06:42;;;;;;;1.40;1.30;;;;;;;;;;5023924;28;58630;-65
2023/04/22 06:09:08;;;;;;;1.60;1.47;;;;;;;;;;5024012;28;59108;-63
2023/04/22 06:11:33;;;;;;;1.50;1.40;;;;;;;;;;5024403;28;58765;-67
2023/04/22 06:13:58;;;;;;;1.53;1.43;;;;;;;;;;5025987;28;58735;-70
2023/04/22 06:16:23;;;;;;;1.50;1.40;;;;;;;;;;5027335;28;58795;-66
2023/04/22 06:18:48;;;;;;;1.53;1.43;;;;;;;;;;5029414;28;58312;-68
2023/04/22 06:21:14;;;;;;;1.80;1.40;;;;;;;;;;5029340;28;58358;-70
2023/04/22 06:23:39;;;;;;;1.88;1.50;;;;;;;;;;5028706;28;58862;-65
2023/04/22 06:26:04;;;;;;;1.90;1.70;;;;;;;;;;5026328;28;58511;-66
2023/04/22 06:28:30;;;;;;;3.03;1.40;;;;;;;;;;5027394;28;58571;-65
2023/04/22 06:30:55;;;;;;;9.90;2.30;;;;;;;;;;5028567;28;58591;-63
2023/04/22 06:33:20;;;;;;;1.70;1.60;;;;;;;;;;5028340;28;58728;-65
2023/04/22 06:35:45;;;;;;;1.47;1.37;;;;;;;;;;5028808;28;58785;-61
2023/04/22 06:38:10;;;;;;;2.17;1.27;;;;;;;;;;5029398;28;58614;-67
2023/04/22 06:40:36;;;;;;;1.87;1.60;;;;;;;;;;5026885;28;58577;-65
2023/04/22 06:43:01;;;;;;;20.63;2.20;;;;;;;;;;5020577;28;58293;-64
2023/04/22 06:45:26;;;;;;;1.33;1.33;;;;;;;;;;5027737;28;58485;-60
2023/04/22 06:47:54;;;;;;;1.40;1.30;;;;;;;;;;5029164;28;59035;-66
2023/04/22 06:50:19;;;;;;;;;;;;;;;;;;5026056;28;58936;-60
2023/04/22 06:52:45;;;;;;;1.50;1.27;;;;;;;;;;5028798;28;58613;-66
2023/04/22 06:55:10;;;;;;;2.63;1.17;;;;;;;;;;5028873;28;58430;-62
2023/04/22 06:57:35;;;;;;;6.60;1.60;;;;;;;;;;5029281;28;58742;-64
2023/04/22 07:00:01;;;;;;;1.87;1.20;;;;;;;;;;5028744;28;58557;-67
2023/04/22 07:02:26;;;;;;;1.65;1.27;;;;;;;;;;5027669;28;58705;-66
2023/04/22 07:04:51;;;;;;;2.70;1.97;;;;;;;;;;5028699;28;58508;-64
2023/04/22 07:07:17;;;;;;;4.97;1.63;;;;;;;;;;5027923;28;59173;-66
2023/04/22 07:09:42;;;;;;;1.43;1.33;;;;;;;;;;5028623;28;58472;-67
2023/04/22 07:12:07;;;;;;;1.40;1.30;;;;;;;;;;5029384;28;58365;-69
2023/04/22 07:14:32;;;;;;;2.70;1.67;;;;;;;;;;5029168;28;58369;-64
2023/04/22 07:16:58;;;;;;;1.77;1.27;;;;;;;;;;5027719;28;58699;-70
2023/04/22 07:19:23;;;;;;;1.55;1.45;;;;;;;;;;5029715;28;58479;-69
2023/04/22 07:21:48;;;;;;;2.10;1.50;;;;;;;;;;5025534;28;58683;-65
2023/04/22 07:24:14;;;;;;;2.00;1.50;;;;;;;;;;5027632;28;58869;-65
2023/04/22 07:26:40;;;;;;;4.55;1.30;;;;;;;;;;5026090;28;58851;-68
2023/04/22 07:29:06;;;;;;;2.67;1.63;;;;;;;;;;5027447;28;58407;-67
2023/04/22 07:31:31;;;;;;;3.35;1.77;;;;;;;;;;5028243;28;58319;-68
2023/04/22 07:33:56;;;;;;;2.43;1.50;;;;;;;;;;5025915;28;58477;-68
2023/04/22 07:36:21;;;;;;;2.67;1.87;;;;;;;;;;5025621;28;58677;-65
2023/04/22 07:38:46;;;;;;;5.10;1.70;;;;;;;;;;5028336;28;58485;-65
2023/04/22 07:41:11;;;;;;;3.13;1.13;;;;;;;;;;5028242;28;58471;-65
2023/04/22 07:43:37;;;;;;;1.80;1.70;;;;;;;;;;5027596;28;58980;-70
2023/04/22 07:46:02;;;;;;;1.30;1.20;;;;;;;;;;5028327;28;58432;-67
2023/04/22 07:48:27;;;;;;;2.37;1.53;;;;;;;;;;5027661;28;58808;-69
2023/04/22 07:50:52;;;;;;;1.60;1.50;;;;;;;;;;5019051;28;58727;-70
2023/04/22 07:53:17;;;;;;;2.30;1.30;;;;;;;;;;5026944;28;58387;-65
2023/04/22 07:55:43;;;;;;;2.50;1.17;;;;;;;;;;5028257;28;58727;-65
2023/04/22 07:58:08;;;;;;;3.35;1.85;;;;;;;;;;5026718;28;58197;-63
2023/04/22 08:00:34;;;;;;;1.27;1.17;;;;;;;;;;5026916;28;58454;-69
2023/04/22 08:02:59;;;;;;;3.38;1.40;;;;;;;;;;5027790;28;58491;-69
2023/04/22 08:05:24;;;;;;;1.57;1.33;;;;;;;;;;5028493;28;58795;-69
2023/04/22 08:07:49;;;;;;;1.30;1.20;;;;;;;;;;5027298;28;58486;-68
2023/04/22 08:10:14;;;;;;;1.50;1.40;;;;;;;;;;5028125;28;58541;-65
2023/04/22 08:12:40;;;;;;;2.97;2.27;;;;;;;;;;5027469;28;58320;-66
2023/04/22 08:15:05;;;;;;;1.10;1.10;;;;;;;;;;5026979;28;58460;-68
2023/04/22 08:17:30;;;;;;;3.33;1.50;;;;;;;;;;5026403;28;58779;-69
2023/04/22 08:19:55;;;;;;;3.70;1.27;;;;;;;;;;5027676;28;58556;-69
2023/04/22 08:22:22;;;;;;;1.80;1.40;;;;;;;;;;5027586;28;58650;-65
2023/04/22 08:24:47;;;;;;;1.05;1.00;;;;;;;;;;5027403;28;58702;-63
2023/04/22 08:27:13;;;;;;;1.30;1.10;;;;;;;;;;5026802;28;58354;-66
2023/04/22 08:29:38;;;;;;;4.30;1.50;;;;;;;;;;5027710;28;58386;-70
2023/04/22 08:32:03;;;;;;;2.57;1.30;;;;;;;;;;5027803;28;59212;-69
2023/04/22 08:34:28;;;;;;;2.67;1.43;;;;;;;;;;5026861;28;58739;-66
2023/04/22 08:36:53;;;;;;;2.10;1.37;;;;;;;;;;5026547;28;58748;-66
2023/04/22 08:39:19;;;;;;;1.67;1.33;;;;;;;;;;5027068;28;58940;-67
2023/04/22 08:41:45;;;;;;;3.13;1.60;;;;;;;;;;5024072;28;58824;-67
2023/04/22 08:44:10;;;;;;;7.78;1.92;;;;;;;;;;5027841;28;58500;-71
2023/04/22 08:46:36;;;;;;;1.30;1.03;;;;;;;;;;5024294;28;58628;-70
2023/04/22 08:49:02;;;;;;;6.53;2.63;;;;;;;;;;5027020;28;58432;-66
2023/04/22 08:51:30;;;;;;;5.03;1.50;;;;;;;;;;5025871;28;59493;-70
2023/04/22 08:53:55;;;;;;;6.22;1.50;;;;;;;;;;5026347;28;58766;-72
2023/04/22 08:56:21;;;;;;;2.05;1.30;;;;;;;;;;5027707;28;58483;-70
2023/04/22 08:58:46;;;;;;;5.73;1.77;;;;;;;;;;5025474;28;58757;-70
2023/04/22 09:01:12;;;;;;;9.80;1.50;;;;;;;;;;5026020;28;58823;-70
2023/04/22 09:03:41;;;;;;;6.43;2.97;;;;;;;;;;5027383;28;58681;-67
2023/04/22 09:06:06;;;;;;;8.05;2.00;;;;;;;;;;5026716;28;58444;-70
2023/04/22 09:08:31;;;;;;;6.00;1.85;;;;;;;;;;5027369;28;58521;-71
2023/04/22 09:10:57;;;;;;;2.40;2.20;;;;;;;;;;5027679;28;58443;-72
2023/04/22 09:13:23;;;;;;;4.38;2.00;;;;;;;;;;5026497;28;58451;-71
2023/04/22 09:15:48;;;;;;;2.85;1.70;;;;;;;;;;5027204;28;58692;-71
2023/04/22 09:18:15;;;;;;;2.03;1.60;;;;;;;;;;5026596;28;58754;-65
2023/04/22 09:20:41;;;;;;;9.33;1.90;;;;;;;;;;5025547;28;58428;-70
2023/04/22 09:23:06;;;;;;;2.80;1.43;;;;;;;;;;5026792;28;58497;-70
2023/04/22 09:25:32;;;;;;;1.65;1.55;;;;;;;;;;5023439;28;58991;-70
2023/04/22 09:27:58;;;;;;;6.35;2.65;;;;;;;;;;5022316;28;58411;-67
2023/04/22 09:30:24;;;;;;;11.63;3.38;;;;;;;;;;5026891;28;58745;-67
2023/04/22 09:33:00;;;;;;;3.83;2.00;;;;;;;;;;5023220;28;58797;-65
2023/04/22 09:35:29;;;;;;;3.50;1.92;;;;;;;;;;5025206;28;58677;-68
2023/04/22 09:37:55;;;;;;;6.90;1.90;;;;;;;;;;5027276;28;61927;-67
2023/04/22 09:40:20;;;;;;;11.83;2.33;;;;;;;;;;5024893;28;58554;-68
2023/04/22 09:42:49;;;;;;;4.63;1.67;;;;;;;;;;5025694;28;58640;-65
2023/04/22 09:45:23;;;;;;;4.13;1.90;;;;;;;;;;5024616;28;59145;-68
2023/04/22 09:47:48;;;;;;;4.95;2.08;;;;;;;;;;5025429;28;58579;-67
2023/04/22 09:50:13;;;;;;;5.57;2.05;;;;;;;;;;5028297;28;59348;-68
2023/04/22 09:52:39;;;;;;;2.58;1.63;;;;;;;;;;5028812;28;59279;-68
2023/04/22 09:55:07;;;;;;;2.03;1.70;;;;;;;;;;5028643;28;58801;-67
2023/04/22 09:57:32;;;;;;;4.30;1.73;;;;;;;;;;5028478;28;58395;-69
2023/04/22 09:59:57;;;;;;;1.67;1.58;;;;;;;;;;5025832;28;58969;-66
2023/04/22 10:02:32;;;;;;;6.93;1.83;;;;;;;;;;5030576;28;58360;-69
2023/04/22 10:04:58;;;;;;;3.67;2.08;;;;;;;;;;5026129;28;63582;-65
2023/04/22 10:07:23;;;;;;;3.38;1.60;;;;;;;;;;5027068;28;59449;-69
2023/04/22 10:09:48;;;;;;;3.20;2.03;;;;;;;;;;5029293;28;58811;-67
2023/04/22 10:12:13;;;;;;;5.23;2.07;;;;;;;;;;5028757;28;58418;-68
2023/04/22 10:14:39;;;;;;;1.63;1.40;;;;;;;;;;5027066;27;58795;-68
2023/04/22 10:17:04;;;;;;;5.78;1.65;;;;;;;;;;5028931;28;58772;-69
2023/04/22 10:19:31;;;;;;;6.88;1.60;;;;;;;;;;5026984;28;58799;-70
2023/04/22 10:21:57;;;;;;;5.68;1.88;;;;;;;;;;5028577;28;58386;-68
2023/04/22 10:24:24;;;;;;;2.40;1.08;;;;;;;;;;5027348;28;58293;-69
2023/04/22 10:26:57;;;;;;;6.97;2.10;;;;;;;;;;5026331;28;58922;-64
2023/04/22 10:29:22;;;;;;;3.85;1.35;;;;;;;;;;5028906;28;58458;-71
2023/04/22 10:32:14;;;;;;;6.38;1.80;;;;;;;;;;5028263;28;58843;-68
2023/04/22 10:34:39;;;;;;;2.80;1.60;;;;;;;;;;5027135;28;58271;-68
2023/04/22 10:37:06;;;;;;;5.63;1.70;;;;;;;;;;5026652;28;58762;-70
2023/04/22 10:39:31;;;;;;;5.63;1.63;;;;;;;;;;5026857;28;59268;-68
2023/04/22 10:42:05;;;;;;;3.17;1.30;;;;;;;;;;5029601;28;58818;-68
2023/04/22 10:44:49;;;;;;;3.05;1.40;;;;;;;;;;5026573;28;58394;-69
2023/04/22 10:47:23;;;;;;;3.03;1.35;;;;;;;;;;5029169;28;58798;-67
2023/04/22 10:49:50;;;;;;;7.65;2.03;;;;;;;;;;5025781;28;58442;-66
2023/04/22 10:52:26;;;;;;;9.88;2.05;;;;;;;;;;5029280;28;59026;-68
2023/04/22 10:54:51;;;;;;;4.80;1.85;;;;;;;;;;5029694;28;58983;-68
2023/04/22 10:57:23;;;;;;;7.80;2.37;;;;;;;;;;5029346;28;59100;-71
2023/04/22 10:59:51;;;;;;;6.13;2.08;;;;;;;;;;5026663;28;58582;-69
2023/04/22 11:02:17;;;;;;;9.10;1.27;;;;;;;;;;5029293;28;58438;-69
2023/04/22 11:04:42;;;;;;;1.63;1.25;;;;;;;;;;5027285;28;59216;-67
2023/04/22 11:07:16;;;;;;;3.10;1.27;;;;;;;;;;5027687;28;58341;-68
2023/04/22 11:09:43;;;;;;;4.05;1.35;;;;;;;;;;5029322;28;58379;-68
2023/04/22 11:12:34;;;;;;;5.00;1.48;;;;;;;;;;5027157;28;59641;-69
2023/04/22 11:15:00;;;;;;;7.65;1.70;;;;;;;;;;5028369;28;58649;-69
2023/04/22 11:17:25;;;;;;;3.13;1.60;;;;;;;;;;5028902;28;58768;-71
2023/04/22 11:19:55;;;;;;;3.67;1.05;;;;;;;;;;5026101;28;59997;-72
2023/04/22 11:22:21;;;;;;;7.22;1.92;;;;;;;;;;5027093;28;58423;-72
2023/04/22 11:24:53;;;;;;;2.88;1.52;;;;;;;;;;5025485;28;59030;-70
2023/04/22 11:27:24;;;;;;;2.80;1.83;;;;;;;;;;5024698;28;58448;-70
2023/04/22 11:30:03;;;;;;;1.88;1.45;;;;;;;;;;5027741;28;58582;-71
2023/04/22 11:32:29;;;;;;;3.97;1.70;;;;;;;;;;5027314;28;59132;-70
2023/04/22 11:34:54;;;;;;;12.82;1.75;;;;;;;;;;5028142;28;58651;-66
2023/04/22 11:37:20;;;;;;;1.92;1.23;;;;;;;;;;5026634;28;58442;-70
2023/04/22 11:39:45;;;;;;;2.03;1.23;;;;;;;;;;5027826;28;58736;-70
2023/04/22 11:42:13;;;;;;;2.73;1.50;;;;;;;;;;5028210;28;58676;-71
2023/04/22 11:44:38;;;;;;;;;;;;;;;;;;5028747;28;59053;-70
2023/04/22 11:47:04;;;;;;;6.38;1.63;;;;;;;;;;5028647;28;58742;-71
2023/04/22 11:49:31;;;;;;;3.73;1.13;;;;;;;;;;5027980;28;58486;-70
2023/04/22 11:51:56;;;;;;;4.13;1.70;;;;;;;;;;5028405;28;58868;-71
2023/04/22 11:54:32;;;;;;;3.40;1.97;;;;;;;;;;5027490;28;58787;-71
2023/04/22 11:57:00;;;;;;;3.58;1.40;;;;;;;;;;5027194;28;58388;-71
2023/04/22 11:59:25;;;;;;;4.28;1.50;;;;;;;;;;5028784;28;58824;-70
2023/04/22 12:01:51;;;;;;;5.03;1.60;;;;;;;;;;5028165;28;58467;-70
2023/04/22 12:04:16;;;;;;;4.90;1.33;;;;;;;;;;5028292;28;58459;-70
2023/04/22 12:06:41;;;;;;;8.43;2.65;;;;;;;;;;5025299;28;58422;-70
2023/04/22 12:09:06;;;;;;;3.47;1.70;;;;;;;;;;5024961;28;58522;-66
2023/04/22 12:11:32;;;;;;;3.10;1.98;;;;;;;;;;5025554;28;58353;-70
2023/04/22 12:14:03;;;;;;;5.57;1.60;;;;;;;;;;5001187;28;58490;-68
2023/04/22 12:16:38;;;;;;;8.50;1.40;;;;;;;;;;5004308;28;58600;-69
2023/04/22 12:19:03;;;;;;;2.33;1.80;;;;;;;;;;5016872;28;59064;-70
2023/04/22 12:21:28;;;;;;;5.15;1.30;;;;;;;;;;5025065;28;58637;-67
2023/04/22 12:23:55;;;;;;;6.20;2.05;;;;;;;;;;5025636;28;58448;-71
2023/04/22 12:26:23;;;;;;;5.57;2.25;;;;;;;;;;5026270;28;58772;-67
2023/04/22 12:28:48;;;;;;;8.27;1.98;;;;;;;;;;5024805;28;59401;-67
2023/04/22 12:31:14;;;;;;;2.53;1.33;;;;;;;;;;5025207;28;58794;-70
2023/04/22 12:33:39;;;;;;;4.57;1.50;;;;;;;;;;5025590;28;58542;-69
2023/04/22 12:36:05;;;;;;;4.18;1.98;;;;;;;;;;5024631;28;58766;-69
2023/04/22 12:38:30;;;;;;;8.15;2.00;;;;;;;;;;5027630;28;58728;-69
2023/04/22 12:40:56;;;;;;;5.87;2.57;;;;;;;;;;5025404;28;58005;-68
2023/04/22 12:43:21;;;;;;;5.53;2.10;;;;;;;;;;5026615;28;58646;-71
2023/04/22 12:45:46;;;;;;;5.40;2.05;;;;;;;;;;5023852;28;58905;-66
2023/04/22 12:48:12;;;;;;;6.38;1.83;;;;;;;;;;5027451;28;58652;-66
2023/04/22 12:50:37;;;;;;;4.95;1.65;;;;;;;;;;5027020;28;58791;-66
2023/04/22 12:53:03;;;;;;;4.38;1.60;;;;;;;;;;5027618;28;58900;-68
2023/04/22 12:55:28;;;;;;;4.55;2.20;;;;;;;;;;5027934;28;58479;-68
2023/04/22 12:57:53;;;;;;;12.63;1.60;;;;;;;;;;5027548;28;58956;-65
2023/04/22 13:00:19;;;;;;;4.97;2.03;;;;;;;;;;5025387;28;58626;-67
2023/04/22 13:02:45;;;;;;;5.15;2.33;;;;;;;;;;5027133;28;58453;-66
2023/04/22 13:05:11;;;;;;;5.47;1.58;;;;;;;;;;5041807;28;61130;-66
2023/04/22 13:07:37;;;;;;;3.08;1.33;;;;;;;;;;5026689;28;58704;-66
2023/04/22 13:10:02;;;;;;;4.80;1.70;;;;;;;;;;5027086;28;58840;-65
2023/04/22 13:12:28;;;;;;;4.53;1.23;;;;;;;;;;5026753;28;58568;-65
2023/04/22 13:14:53;;;;;;;4.43;1.58;;;;;;;;;;5027974;28;58351;-68
2023/04/22 13:17:18;;;;;;;3.97;1.63;;;;;;;;;;5027475;28;58427;-68
2023/04/22 13:19:44;;;;;;;2.87;1.70;;;;;;;;;;5025293;28;58115;-65
2023/04/22 13:22:09;;;;;;;14.63;2.75;;;;;;;;;;5026978;28;59002;-66
2023/04/22 13:24:34;;;;;;;3.40;1.70;;;;;;;;;;5026958;28;59223;-66
2023/04/22 13:27:00;;;;;;;7.70;2.20;;;;;;;;;;5029731;28;59700;-66
2023/04/22 13:29:25;;;;;;;4.65;1.85;;;;;;;;;;5030048;28;58836;-66
2023/04/22 13:31:51;;;;;;;3.08;1.90;;;;;;;;;;5029788;28;59386;-66
2023/04/22 13:34:16;;;;;;;5.55;2.22;;;;;;;;;;5030106;28;57899;-66
2023/04/22 13:36:41;;;;;;;3.47;1.17;;;;;;;;;;5028499;28;59359;-66
2023/04/22 13:39:07;;;;;;;7.13;1.83;;;;;;;;;;5029837;28;58384;-66
2023/04/22 13:41:33;;;;;;;5.35;1.50;;;;;;;;;;5030895;28;58567;-65
2023/04/22 13:43:58;;;;;;;4.68;1.48;;;;;;;;;;5029591;28;58583;-68
2023/04/22 13:46:23;;;;;;;4.22;1.90;;;;;;;;;;5028749;28;58409;-70
2023/04/22 13:48:49;;;;;;;2.23;0.97;;;;;;;;;;5030644;28;58297;-65
2023/04/22 13:51:14;;;;;;;7.20;2.40;;;;;;;;;;5028230;28;58801;-66
2023/04/22 13:53:39;;;;;;;6.90;1.83;;;;;;;;;;5030329;28;58656;-68
2023/04/22 13:56:04;;;;;;;7.60;2.33;;;;;;;;;;5030439;28;58446;-66
2023/04/22 13:58:29;;;;;;;2.37;1.33;;;;;;;;;;5028777;28;58697;-66
2023/04/22 14:00:55;;;;;;;2.13;1.37;;;;;;;;;;5028691;28;58587;-66
2023/04/22 14:03:20;;;;;;;2.43;1.40;;;;;;;;;;5029790;28;58972;-66
2023/04/22 14:05:45;;;;;;;8.27;2.40;;;;;;;;;;5027820;28;58806;-66
2023/04/22 14:08:10;;;;;;;4.20;1.30;;;;;;;;;;5031409;28;58713;-66
2023/04/22 14:10:35;;;;;;;1.77;1.60;;;;;;;;;;5028128;28;58700;-66
2023/04/22 14:13:00;;;;;;;3.40;1.48;;;;;;;;;;5029693;28;58525;-68
2023/04/22 14:15:25;;;;;;;2.33;1.50;;;;;;;;;;5029703;28;59647;-66
2023/04/22 14:17:51;;;;;;;2.40;2.17;;;;;;;;;;5029622;28;58411;-66
2023/04/22 14:20:17;;;;;;;2.85;1.58;;;;;;;;;;5030728;28;58344;-66
2023/04/22 14:22:42;;;;;;;6.13;2.00;;;;;;;;;;5028823;28;58507;-66
2023/04/22 14:25:07;;;;;;;4.05;1.60;;;;;;;;;;5028082;28;58471;-66
2023/04/22 14:27:32;;;;;;;6.10;1.75;;;;;;;;;;5029947;28;58706;-66
2023/04/22 14:29:57;;;;;;;5.25;2.42;;;;;;;;;;5044699;28;60255;-66
2023/04/22 14:32:24;;;;;;;5.00;1.40;;;;;;;;;;5029206;28;58367;-66
2023/04/22 14:34:49;;;;;;;3.97;1.17;;;;;;;;;;5029883;28;58198;-68